Terminal Aerodrome Forecast
Issued by NWS Knoxville/Tri Cities, TN

Current Version | Previous Version | Text Only | Print | Product List | Glossary On
Versions: 1 2 3 4 5 6 7 8 9 10 11 12 13 14 15 16 17 18 19 20 21 22 23 24 25 26
000
FTUS44 KMRX 302335
TAFTYS
TAF
KTYS 302335Z 0100/0124 17015G22KT P6SM SCT060 BKN120
     FM010200 18014G20KT 6SM -SHRA SCT040 BKN070
     FM010400 20014KT P6SM SCT050 BKN120
     FM011000 21015G22KT 5SM -TSRA BR SCT030 OVC050CB
     FM011300 23014G25KT 6SM -SHRA BR BKN035
     FM011600 23016G26KT P6SM SCT060=

USA.gov is the U.S. government's official web portal to all federal, state and local government web resources and services.